Time;durP1;ratioP1;P1;durP2;ratioP2;P2;SDS_P1;SDS_P2;PMS_P1;PMS_P2;Temp;Humidity;BMP_temperature;BMP_pressure;BME280_temperature;BME280_humidity;BME280_pressure;Samples;Min_cycle;Max_cycle;Signal;HPM_P1;HPM_P2
2022/10/28 00:01:09;;;;;;;13.57;9.68;;;10.80;99.90;;;;;;5050251;28;20041;-63
2022/10/28 00:03:38;;;;;;;19.13;11.70;;;10.90;99.90;;;;;;5049082;28;20049;-69
2022/10/28 00:06:09;;;;;;;17.30;11.95;;;10.90;99.90;;;;;;5048860;28;20064;-63
2022/10/28 00:08:35;;;;;;;18.08;10.18;;;10.90;99.90;;;;;;5047279;28;20134;-66
2022/10/28 00:11:07;;;;;;;23.15;12.25;;;10.90;99.90;;;;;;5041501;28;20041;-64
2022/10/28 00:13:35;;;;;;;16.95;11.70;;;10.90;99.90;;;;;;5043131;28;20136;-68
2022/10/28 00:16:08;;;;;;;22.13;12.52;;;11.00;99.90;;;;;;5051340;28;20060;-67
2022/10/28 00:18:35;;;;;;;23.90;14.13;;;11.00;99.90;;;;;;5048849;28;20044;-65
2022/10/28 00:21:05;;;;;;;21.73;12.90;;;10.90;99.90;;;;;;5050013;28;20056;-64
2022/10/28 00:23:32;;;;;;;;;;;11.00;99.90;;;;;;5050771;28;20076;-73
2022/10/28 00:26:11;;;;;;;18.15;11.27;;;11.00;99.90;;;;;;5051045;28;19920;-70
2022/10/28 00:28:42;;;;;;;18.00;12.52;;;10.90;99.90;;;;;;5046710;28;20075;-71
2022/10/28 00:31:11;;;;;;;23.50;11.73;;;10.90;99.90;;;;;;5047165;28;20047;-66
2022/10/28 00:33:38;;;;;;;16.67;10.65;;;10.90;99.90;;;;;;5046996;28;20127;-64
2022/10/28 00:36:11;;;;;;;23.23;12.07;;;10.90;99.90;;;;;;5048114;28;20044;-64
2022/10/28 00:38:40;;;;;;;26.98;11.23;;;10.90;99.90;;;;;;5043502;28;20426;-68
2022/10/28 00:41:07;;;;;;;14.45;10.68;;;10.90;99.90;;;;;;5049364;28;20045;-64
2022/10/28 00:43:38;;;;;;;26.38;13.45;;;10.90;99.90;;;;;;5046518;28;20041;-67
2022/10/28 00:46:13;;;;;;;22.25;13.18;;;10.90;99.90;;;;;;5042896;28;20051;-64
2022/10/28 00:48:44;;;;;;;28.20;14.95;;;10.90;99.90;;;;;;5048282;28;20083;-66
2022/10/28 00:51:12;;;;;;;22.05;13.38;;;10.90;99.90;;;;;;5049674;28;20137;-64
2022/10/28 00:53:42;;;;;;;31.95;13.70;;;10.90;99.90;;;;;;5051235;28;20049;-67
2022/10/28 00:56:10;;;;;;;33.03;12.48;;;10.90;99.90;;;;;;5049929;28;20147;-64
2022/10/28 00:58:37;;;;;;;24.10;12.30;;;10.90;99.90;;;;;;5041790;28;20899;-63
2022/10/28 01:05:34;;;;;;;40.05;14.25;;;10.90;99.90;;;;;;5075953;28;20191;-66
2022/10/28 01:08:03;;;;;;;31.67;13.52;;;10.90;99.90;;;;;;5060920;28;20550;-64
2022/10/28 01:11:08;;;;;;;27.27;14.32;;;10.90;99.90;;;;;;5060471;28;20040;-67
2022/10/28 01:13:41;;;;;;;29.10;16.48;;;10.90;99.90;;;;;;5045584;28;20043;-64
2022/10/28 01:16:26;;;;;;;26.65;15.65;;;10.90;99.90;;;;;;5083096;28;20152;-73
2022/10/28 01:19:18;;;;;;;32.72;15.98;;;10.90;99.90;;;;;;5077185;28;20047;-64
2022/10/28 01:22:03;;;;;;;28.05;16.15;;;10.90;99.90;;;;;;5057598;28;20562;-66
2022/10/28 01:24:56;;;;;;;24.50;15.38;;;11.00;99.90;;;;;;5060135;28;20048;-69
2022/10/28 01:27:44;;;;;;;26.05;15.38;;;11.00;99.90;;;;;;5055497;28;20048;-66
2022/10/28 01:30:24;;;;;;;29.50;16.30;;;11.00;99.90;;;;;;5065932;28;20048;-65
2022/10/28 01:33:20;;;;;;;28.90;15.05;;;11.00;99.90;;;;;;5073354;28;20368;-69
2022/10/28 01:36:03;;;;;;;26.42;15.27;;;11.00;99.90;;;;;;5066825;28;20494;-65
2022/10/28 01:38:42;;;;;;;25.50;16.52;;;11.00;99.90;;;;;;5061705;28;20048;-63
2022/10/28 01:41:34;;;;;;;27.05;14.63;;;11.00;99.90;;;;;;5066814;28;20131;-70
2022/10/28 01:44:26;;;;;;;28.90;16.30;;;11.00;99.90;;;;;;5083932;28;20040;-67
2022/10/28 01:46:53;;;;;;;21.90;13.82;;;11.10;99.90;;;;;;5068353;28;20040;-64
2022/10/28 01:49:58;;;;;;;26.08;15.98;;;11.10;99.90;;;;;;5089700;28;20060;-65
2022/10/28 01:52:28;;;;;;;23.38;15.95;;;11.10;99.90;;;;;;5044179;28;20389;-66
2022/10/28 01:55:26;;;;;;;21.42;14.18;;;11.10;99.90;;;;;;5092235;28;20525;-65
2022/10/28 01:57:57;;;;;;;23.75;15.02;;;11.10;99.90;;;;;;5085576;28;20040;-68
2022/10/28 02:00:25;;;;;;;29.92;15.88;;;11.10;99.90;;;;;;5074494;28;20064;-66
2022/10/28 02:02:53;;;;;;;28.77;15.98;;;11.10;99.90;;;;;;5084079;28;20463;-64
2022/10/28 02:05:39;;;;;;;26.50;15.90;;;11.10;99.90;;;;;;5081540;28;20044;-69
2022/10/28 02:08:18;;;;;;;19.75;13.70;;;11.10;99.90;;;;;;5084443;28;20130;-65
2022/10/28 02:11:31;;;;;;;29.63;13.88;;;11.10;99.90;;;;;;5081092;28;20078;-67
2022/10/28 02:14:23;;;;;;;27.35;16.25;;;11.00;99.90;;;;;;5041825;28;20076;-69
2022/10/28 02:16:53;;;;;;;25.98;15.88;;;11.00;99.90;;;;;;5086416;28;20896;-69
2022/10/28 02:19:29;;;;;;;22.55;13.15;;;11.00;99.90;;;;;;5082484;28;20155;-71
2022/10/28 02:22:07;;;;;;;25.75;12.68;;;10.90;99.90;;;;;;5087796;28;20054;-65
2022/10/28 02:25:13;;;;;;;30.10;14.77;;;11.00;99.90;;;;;;5078414;28;20051;-66
2022/10/28 02:28:04;;;;;;;17.00;12.73;;;11.00;99.90;;;;;;5043306;28;20234;-67
2022/10/28 02:30:43;;;;;;;24.35;14.02;;;11.00;99.90;;;;;;5074879;28;20135;-69
2022/10/28 02:33:15;;;;;;;28.00;14.48;;;11.10;99.90;;;;;;5090700;28;20050;-64
2022/10/28 02:35:47;;;;;;;25.05;14.13;;;11.10;99.90;;;;;;5081775;28;20048;-64
2022/10/28 02:38:21;;;;;;;22.45;13.52;;;11.10;99.90;;;;;;5082151;28;20036;-65
2022/10/28 02:40:53;;;;;;;25.00;14.82;;;11.20;99.90;;;;;;5084373;28;20056;-64
2022/10/28 02:43:23;;;;;;;36.30;17.98;;;11.20;99.90;;;;;;5085714;28;20062;-65
2022/10/28 02:45:55;;;;;;;29.83;16.48;;;11.30;99.90;;;;;;5080795;28;20697;-66
2022/10/28 02:48:42;;;;;;;29.20;18.45;;;11.30;99.90;;;;;;5086721;28;20048;-65
2022/10/28 02:51:13;;;;;;;27.35;15.93;;;11.30;99.90;;;;;;5086372;28;20044;-68
2022/10/28 02:54:09;;;;;;;35.13;16.55;;;11.30;99.90;;;;;;5085565;28;20514;-64
2022/10/28 02:56:59;;;;;;;33.08;18.52;;;11.40;99.90;;;;;;5084126;28;20143;-68
2022/10/28 02:59:27;;;;;;;32.90;16.67;;;11.40;99.90;;;;;;5078239;28;20040;-67
2022/10/28 03:01:55;;;;;;;32.97;17.38;;;11.40;99.90;;;;;;5087874;28;20042;-67
2022/10/28 03:04:21;;;;;;;28.17;17.25;;;11.30;99.90;;;;;;5085069;28;20405;-69
2022/10/28 03:06:48;;;;;;;27.67;16.83;;;11.40;99.90;;;;;;5082225;28;20062;-66
2022/10/28 03:09:15;;;;;;;23.25;17.40;;;11.30;99.90;;;;;;5079199;28;20478;-68
2022/10/28 03:11:42;;;;;;;22.60;16.50;;;11.30;99.90;;;;;;5081290;28;20046;-64
2022/10/28 03:14:09;;;;;;;28.80;17.42;;;11.30;99.90;;;;;;5086149;28;20090;-64
2022/10/28 03:16:41;;;;;;;26.27;17.58;;;11.30;99.90;;;;;;5084615;28;20052;-64
2022/10/28 03:19:07;;;;;;;34.33;18.70;;;11.30;99.90;;;;;;5089726;28;20382;-64
2022/10/28 03:21:39;;;;;;;23.85;15.20;;;11.30;99.90;;;;;;5091087;28;20131;-68
2022/10/28 03:24:06;;;;;;;30.80;16.75;;;11.30;99.90;;;;;;5081401;28;20044;-65
2022/10/28 03:26:33;;;;;;;27.63;16.15;;;11.30;99.90;;;;;;5081239;28;20653;-67
2022/10/28 03:29:00;;;;;;;27.05;15.73;;;11.30;99.90;;;;;;5090493;28;20492;-68
2022/10/28 03:31:27;;;;;;;22.92;16.15;;;11.20;99.90;;;;;;5087653;28;20114;-67
2022/10/28 03:33:54;;;;;;;23.95;15.95;;;11.20;99.90;;;;;;5090102;28;20418;-65
2022/10/28 03:36:20;;;;;;;19.13;15.52;;;11.20;99.90;;;;;;5091098;28;20131;-67
2022/10/28 03:38:47;;;;;;;22.48;14.68;;;11.20;99.90;;;;;;5083778;28;20119;-64
2022/10/28 03:41:14;;;;;;;25.15;15.30;;;11.20;99.90;;;;;;5091781;28;20087;-73
2022/10/28 03:43:41;;;;;;;22.08;15.65;;;11.20;99.90;;;;;;5089655;28;20054;-64
2022/10/28 03:46:08;;;;;;;21.02;15.52;;;11.20;99.90;;;;;;5087127;28;20059;-64
2022/10/28 03:48:35;;;;;;;22.00;14.85;;;11.20;99.90;;;;;;5090876;28;20139;-75
2022/10/28 03:51:02;;;;;;;26.77;16.05;;;11.20;99.90;;;;;;5082353;28;20041;-65
2022/10/28 03:53:29;;;;;;;27.25;17.05;;;11.20;99.90;;;;;;5091416;28;20048;-66
2022/10/28 03:55:59;;;;;;;29.65;16.05;;;11.20;99.90;;;;;;5077894;28;20040;-65
2022/10/28 03:58:26;;;;;;;36.17;17.58;;;11.20;99.90;;;;;;5067833;28;20082;-68
2022/10/28 04:00:54;;;;;;;34.45;19.02;;;11.20;99.90;;;;;;5090696;28;20052;-66
2022/10/28 04:03:23;;;;;;;31.00;21.02;;;11.30;99.90;;;;;;5089494;28;20048;-64
2022/10/28 04:05:50;;;;;;;37.88;20.77;;;11.20;99.90;;;;;;5085907;28;20067;-69
2022/10/28 04:08:17;;;;;;;34.45;19.48;;;11.20;99.90;;;;;;5088054;28;20040;-71
2022/10/28 04:10:45;;;;;;;43.22;20.50;;;11.30;99.90;;;;;;5087637;28;20040;-72
2022/10/28 04:13:14;;;;;;;34.00;19.45;;;11.20;99.90;;;;;;5090072;28;20055;-68
2022/10/28 04:15:41;;;;;;;36.58;19.92;;;11.30;99.90;;;;;;5086796;28;20128;-64
2022/10/28 04:18:08;;;;;;;45.53;21.65;;;11.30;99.90;;;;;;5087383;28;20076;-68
2022/10/28 04:20:35;;;;;;;43.25;22.13;;;11.30;99.90;;;;;;5090497;28;20464;-67
2022/10/28 04:23:02;;;;;;;45.78;20.35;;;11.30;99.90;;;;;;5084678;28;20049;-64
2022/10/28 04:25:30;;;;;;;49.97;22.48;;;11.30;99.90;;;;;;5090253;28;20117;-71
2022/10/28 04:27:56;;;;;;;41.75;23.10;;;11.30;99.90;;;;;;5089111;28;20489;-70
2022/10/28 04:30:24;;;;;;;36.40;20.02;;;11.30;99.90;;;;;;5079242;28;20075;-66
2022/10/28 04:32:51;;;;;;;40.92;20.13;;;11.30;99.90;;;;;;5091127;28;20054;-64
2022/10/28 04:35:17;;;;;;;46.40;22.23;;;11.30;99.90;;;;;;5082459;28;20050;-68
2022/10/28 04:37:44;;;;;;;41.72;19.88;;;11.30;99.90;;;;;;5081806;28;20052;-66
2022/10/28 04:40:12;;;;;;;37.85;19.05;;;11.30;99.90;;;;;;5086865;28;20514;-65
2022/10/28 04:42:38;;;;;;;43.70;20.83;;;11.30;99.90;;;;;;5082754;28;20044;-68
2022/10/28 04:45:06;;;;;;;36.83;20.35;;;11.30;99.90;;;;;;5086370;28;20064;-68
2022/10/28 04:47:33;;;;;;;38.83;20.08;;;11.30;99.90;;;;;;5086771;28;20054;-69
2022/10/28 04:50:01;;;;;;;37.75;20.80;;;11.40;99.90;;;;;;5084928;28;20051;-68
2022/10/28 04:52:28;;;;;;;36.58;19.30;;;11.40;99.90;;;;;;5086525;28;20075;-65
2022/10/28 04:54:54;;;;;;;33.10;17.88;;;11.40;99.90;;;;;;5068915;28;20131;-66
2022/10/28 04:57:21;;;;;;;35.25;18.67;;;11.40;99.90;;;;;;5082954;28;20044;-64
2022/10/28 04:59:48;;;;;;;33.17;17.92;;;11.40;99.90;;;;;;5079492;28;20044;-66
2022/10/28 05:02:15;;;;;;;32.65;18.00;;;11.40;99.90;;;;;;5082167;28;20058;-66
2022/10/28 05:04:42;;;;;;;35.65;21.33;;;11.40;99.90;;;;;;5080805;28;20048;-65
2022/10/28 05:07:09;;;;;;;34.28;20.08;;;11.40;99.90;;;;;;5083085;28;20038;-67
2022/10/28 05:09:36;;;;;;;31.15;18.42;;;11.40;99.90;;;;;;5081949;28;20184;-65
2022/10/28 05:12:03;;;;;;;29.63;18.23;;;11.40;99.90;;;;;;5078393;28;20059;-65
2022/10/28 05:14:30;;;;;;;32.88;19.60;;;11.50;99.90;;;;;;5063955;28;20049;-72
2022/10/28 05:16:56;;;;;;;39.78;21.83;;;11.50;99.90;;;;;;5076373;28;20139;-73
2022/10/28 05:19:23;;;;;;;31.50;19.90;;;11.50;99.90;;;;;;5084563;28;20071;-68
2022/10/28 05:21:50;;;;;;;31.67;18.33;;;11.50;99.90;;;;;;5082339;28;20050;-65
2022/10/28 05:24:17;;;;;;;25.48;16.17;;;11.50;99.90;;;;;;5087642;28;20044;-65
2022/10/28 05:26:44;;;;;;;34.83;17.58;;;11.50;99.90;;;;;;5081780;28;20381;-68
2022/10/28 05:29:11;;;;;;;29.10;17.20;;;11.50;99.90;;;;;;5079048;28;20052;-65
2022/10/28 05:31:37;;;;;;;30.83;17.33;;;11.50;99.90;;;;;;5077932;28;20080;-66
2022/10/28 05:34:04;;;;;;;34.75;19.13;;;11.50;99.90;;;;;;5083603;28;20127;-64
2022/10/28 05:36:31;;;;;;;29.98;17.70;;;11.50;99.90;;;;;;5082255;28;20055;-69
2022/10/28 05:38:58;;;;;;;23.40;16.00;;;11.60;99.90;;;;;;5086653;28;20094;-69
2022/10/28 05:41:25;;;;;;;23.30;13.88;;;11.60;99.90;;;;;;5081682;28;20486;-65
2022/10/28 05:43:52;;;;;;;27.67;16.77;;;11.60;99.90;;;;;;5080952;28;20952;-63
2022/10/28 05:46:21;;;;;;;29.27;16.65;;;11.60;99.90;;;;;;5080061;28;20437;-66
2022/10/28 05:48:48;;;;;;;26.58;17.13;;;11.70;99.90;;;;;;5079405;28;20044;-65
2022/10/28 05:51:15;;;;;;;24.67;15.00;;;11.70;99.90;;;;;;5082727;28;20849;-65
2022/10/28 05:53:43;;;;;;;21.52;13.80;;;11.70;99.90;;;;;;5080217;28;20144;-69
2022/10/28 05:56:10;;;;;;;23.63;15.05;;;11.80;99.90;;;;;;5080088;28;20055;-68
2022/10/28 05:58:37;;;;;;;23.10;14.25;;;11.80;99.90;;;;;;5071093;28;20152;-64
2022/10/28 06:01:07;;;;;;;20.73;14.93;;;11.80;99.90;;;;;;5077933;28;20477;-64
2022/10/28 06:03:34;;;;;;;21.58;13.80;;;11.80;99.90;;;;;;5082612;28;20044;-66
2022/10/28 06:06:01;;;;;;;24.55;14.32;;;11.80;99.90;;;;;;5082645;28;20059;-71
2022/10/28 06:08:29;;;;;;;20.17;11.95;;;11.90;99.90;;;;;;5069378;28;20063;-63
2022/10/28 06:10:56;;;;;;;18.85;11.05;;;11.90;99.90;;;;;;5078028;28;20052;-70
2022/10/28 06:13:23;;;;;;;22.00;12.27;;;11.90;99.90;;;;;;5083062;28;20506;-68
2022/10/28 06:15:54;;;;;;;17.15;12.95;;;11.90;99.90;;;;;;5079275;28;20032;-64
2022/10/28 06:18:22;;;;;;;46.33;34.78;;;11.90;99.90;;;;;;5076719;28;20062;-67
2022/10/28 06:20:59;;;;;;;30.90;22.95;;;11.90;99.90;;;;;;5077166;28;20052;-66
2022/10/28 06:23:27;;;;;;;25.55;15.57;;;11.90;99.90;;;;;;5078059;28;20044;-65
2022/10/28 06:25:59;;;;;;;24.98;14.02;;;12.00;99.90;;;;;;5077772;28;20040;-64
2022/10/28 06:28:27;;;;;;;22.58;13.77;;;11.90;99.90;;;;;;5071563;28;20091;-72
2022/10/28 06:30:54;;;;;;;26.83;14.55;;;12.00;99.90;;;;;;5039025;28;20059;-65
2022/10/28 06:33:20;;;;;;;21.70;14.00;;;12.00;99.90;;;;;;5082682;28;20062;-68
2022/10/28 06:35:47;;;;;;;22.33;13.98;;;12.00;99.90;;;;;;5065574;28;20058;-64
2022/10/28 06:38:14;;;;;;;18.65;12.18;;;12.00;99.90;;;;;;5081024;28;20044;-65
2022/10/28 06:40:41;;;;;;;17.88;10.82;;;12.00;99.90;;;;;;5084295;28;20052;-65
2022/10/28 06:43:09;;;;;;;23.17;11.15;;;12.00;99.90;;;;;;5083942;28;20519;-72
2022/10/28 06:45:36;;;;;;;19.95;11.80;;;12.00;99.90;;;;;;5083477;28;20046;-64
2022/10/28 06:48:04;;;;;;;15.30;10.73;;;12.10;99.90;;;;;;5080608;28;20454;-67
2022/10/28 06:50:33;;;;;;;19.50;11.80;;;12.10;99.90;;;;;;5081864;28;20044;-68
2022/10/28 06:53:00;;;;;;;14.60;9.73;;;12.10;99.90;;;;;;5080173;28;20040;-65
2022/10/28 06:55:28;;;;;;;11.77;8.82;;;12.10;99.90;;;;;;5077496;28;20051;-66
2022/10/28 06:57:59;;;;;;;12.88;9.60;;;12.20;99.90;;;;;;5082631;28;20567;-65
2022/10/28 07:00:26;;;;;;;9.90;8.02;;;12.20;99.90;;;;;;5080622;28;20099;-66
2022/10/28 07:02:54;;;;;;;11.20;8.07;;;12.20;99.90;;;;;;5083863;28;20044;-65
2022/10/28 07:05:23;;;;;;;13.30;9.20;;;12.20;99.90;;;;;;5081590;28;20494;-68
2022/10/28 07:07:49;;;;;;;11.05;7.80;;;12.20;99.90;;;;;;5084845;28;20047;-65
2022/10/28 07:10:17;;;;;;;14.63;7.68;;;12.30;99.90;;;;;;5084852;28;20045;-72
2022/10/28 07:12:44;;;;;;;10.82;8.95;;;12.20;99.90;;;;;;5084118;28;20123;-65
2022/10/28 07:15:10;;;;;;;13.68;8.65;;;12.30;99.90;;;;;;5083745;28;20055;-66
2022/10/28 07:17:37;;;;;;;11.85;7.70;;;12.30;99.90;;;;;;5089721;28;22243;-66
2022/10/28 07:20:05;;;;;;;10.80;8.07;;;12.30;99.90;;;;;;5083971;28;20389;-64
2022/10/28 07:22:32;;;;;;;10.43;7.75;;;12.40;99.90;;;;;;5081785;28;20129;-66
2022/10/28 07:24:58;;;;;;;12.38;8.07;;;12.40;99.90;;;;;;5084665;28;20055;-74
2022/10/28 07:27:25;;;;;;;13.32;10.38;;;12.40;99.90;;;;;;5081375;28;20131;-71
2022/10/28 07:29:52;;;;;;;10.95;9.80;;;12.50;99.90;;;;;;5083696;28;20827;-65
2022/10/28 07:32:19;;;;;;;12.38;8.93;;;12.50;99.90;;;;;;5084256;28;20050;-71
2022/10/28 07:34:46;;;;;;;13.48;9.75;;;12.50;99.90;;;;;;5084205;28;20046;-65
2022/10/28 07:37:13;;;;;;;14.02;9.73;;;12.50;99.90;;;;;;5084551;28;20517;-67
2022/10/28 07:39:40;;;;;;;14.85;9.95;;;12.50;99.90;;;;;;5082361;28;20568;-68
2022/10/28 07:42:07;;;;;;;11.27;9.02;;;12.60;99.90;;;;;;5087048;28;20127;-64
2022/10/28 07:44:33;;;;;;;15.38;10.88;;;12.50;99.90;;;;;;5082506;28;20114;-64
2022/10/28 07:47:00;;;;;;;14.68;10.57;;;12.60;99.90;;;;;;5087343;28;20403;-71
2022/10/28 07:49:27;;;;;;;17.52;10.80;;;12.60;99.90;;;;;;5083604;28;20470;-65
2022/10/28 07:51:54;;;;;;;18.38;11.68;;;12.60;99.90;;;;;;5081767;28;20054;-64
2022/10/28 07:54:21;;;;;;;14.77;9.68;;;12.70;99.90;;;;;;5082540;28;20062;-68
2022/10/28 07:56:48;;;;;;;19.85;12.43;;;12.70;99.90;;;;;;5086642;28;20101;-64
2022/10/28 07:59:15;;;;;;;17.65;11.65;;;12.70;99.90;;;;;;5085837;28;20071;-65
2022/10/28 08:01:42;;;;;;;19.08;11.63;;;12.70;99.90;;;;;;5082457;28;20468;-65
2022/10/28 08:04:09;;;;;;;18.23;13.18;;;12.70;99.90;;;;;;5088497;28;20040;-65
2022/10/28 08:06:36;;;;;;;20.83;13.88;;;12.80;99.90;;;;;;5088383;28;20060;-66
2022/10/28 08:09:03;;;;;;;18.60;13.82;;;12.80;99.90;;;;;;5086265;28;20134;-67
2022/10/28 08:11:30;;;;;;;18.88;12.43;;;12.80;99.90;;;;;;5083022;28;20054;-64
2022/10/28 08:13:57;;;;;;;17.15;12.95;;;12.80;99.90;;;;;;5084861;28;21358;-73
2022/10/28 08:16:24;;;;;;;18.60;12.75;;;12.80;99.90;;;;;;5084253;28;20134;-70
2022/10/28 08:18:52;;;;;;;20.83;13.77;;;12.80;99.90;;;;;;5082028;28;20044;-67
2022/10/28 08:21:19;;;;;;;17.35;12.15;;;12.80;99.90;;;;;;5067407;28;20519;-68
2022/10/28 08:23:46;;;;;;;18.38;13.25;;;12.90;99.90;;;;;;5083540;28;20052;-64
2022/10/28 08:26:15;;;;;;;20.92;14.68;;;12.90;99.90;;;;;;5082150;28;20044;-66
2022/10/28 08:28:42;;;;;;;17.40;13.70;;;12.90;99.90;;;;;;5080387;28;20408;-67
2022/10/28 08:31:11;;;;;;;22.33;15.32;;;12.90;99.90;;;;;;5083369;28;20054;-68
2022/10/28 08:33:41;;;;;;;22.88;17.70;;;12.90;99.90;;;;;;5088476;28;20049;-64
2022/10/28 08:36:13;;;;;;;27.85;17.88;;;13.00;99.90;;;;;;5084731;28;20167;-66
2022/10/28 08:38:42;;;;;;;28.45;20.63;;;13.10;99.90;;;;;;5079610;28;21017;-70
2022/10/28 08:41:31;;;;;;;31.00;22.63;;;13.10;99.90;;;;;;5074715;28;20145;-65
2022/10/28 08:44:17;;;;;;;37.95;24.45;;;13.20;99.90;;;;;;5081681;28;20040;-71
2022/10/28 08:47:24;;;;;;;30.98;22.13;;;13.30;99.90;;;;;;5080432;28;20079;-66
2022/10/28 08:49:58;;;;;;;38.92;27.38;;;13.40;99.90;;;;;;5047604;28;20211;-66
2022/10/28 08:52:39;;;;;;;42.17;27.42;;;13.40;99.90;;;;;;5081617;28;20066;-67
2022/10/28 08:55:12;;;;;;;44.97;30.20;;;13.40;99.90;;;;;;5081006;28;20407;-66
2022/10/28 08:57:51;;;;;;;47.13;28.05;;;13.50;99.90;;;;;;5082244;28;20047;-71
2022/10/28 09:00:25;;;;;;;43.22;30.15;;;13.50;99.90;;;;;;5081605;28;20048;-67
2022/10/28 09:03:05;;;;;;;44.42;30.63;;;13.50;99.90;;;;;;5078946;28;20057;-65
2022/10/28 09:05:33;;;;;;;47.88;32.83;;;13.60;99.90;;;;;;5063967;28;20052;-70
2022/10/28 09:08:01;;;;;;;49.60;33.63;;;13.60;99.90;;;;;;5085382;28;20135;-65
2022/10/28 09:10:38;;;;;;;42.72;30.30;;;13.60;99.90;;;;;;5083552;28;20048;-70
2022/10/28 09:13:19;;;;;;;40.70;27.60;;;13.70;99.90;;;;;;5080346;28;20145;-65
2022/10/28 09:15:56;;;;;;;48.78;31.05;;;13.70;99.90;;;;;;5090521;28;20066;-66
2022/10/28 09:18:40;;;;;;;44.58;31.17;;;13.80;99.90;;;;;;5077622;28;20043;-70
2022/10/28 09:21:17;;;;;;;37.38;28.35;;;13.80;99.90;;;;;;5081501;28;20048;-66
2022/10/28 09:23:56;;;;;;;39.30;31.35;;;13.80;99.90;;;;;;5065121;28;20054;-71
2022/10/28 09:26:59;;;;;;;42.50;28.80;;;13.90;99.90;;;;;;5075382;28;20549;-65
2022/10/28 09:29:40;;;;;;;39.53;28.02;;;14.00;99.90;;;;;;5074352;28;20051;-66
2022/10/28 09:32:33;;;;;;;39.03;29.67;;;14.00;99.90;;;;;;5075262;28;20221;-65
2022/10/28 09:35:16;;;;;;;36.28;26.23;;;14.00;99.90;;;;;;5074587;28;20140;-66
2022/10/28 09:37:55;;;;;;;34.55;24.55;;;14.00;99.90;;;;;;5083019;28;20061;-66
2022/10/28 09:40:29;;;;;;;40.70;26.75;;;14.00;99.90;;;;;;5078858;28;20040;-65
2022/10/28 09:43:07;;;;;;;30.75;25.10;;;14.00;99.90;;;;;;5079936;28;20069;-65
2022/10/28 09:45:39;;;;;;;47.85;26.58;;;14.10;99.90;;;;;;5084754;28;20142;-65
2022/10/28 09:48:21;;;;;;;31.13;24.02;;;14.00;99.90;;;;;;5073100;28;20532;-71
2022/10/28 09:50:51;;;;;;;24.83;21.10;;;14.00;99.90;;;;;;5078144;28;20403;-67
2022/10/28 09:53:43;;;;;;;26.33;23.25;;;14.00;99.90;;;;;;5067086;28;20051;-66
2022/10/28 09:56:10;;;;;;;25.48;22.45;;;14.00;99.90;;;;;;5082114;28;20044;-65
2022/10/28 09:58:42;;;;;;;30.42;22.50;;;13.90;99.90;;;;;;5080656;28;20382;-70
2022/10/28 10:01:09;;;;;;;27.48;21.88;;;13.90;99.90;;;;;;5067427;28;20048;-67
2022/10/28 10:03:38;;;;;;;26.95;21.65;;;13.90;99.90;;;;;;5064315;28;20145;-66
2022/10/28 10:06:12;;;;;;;30.27;23.20;;;13.80;99.90;;;;;;5066693;28;20441;-65
2022/10/28 10:08:40;;;;;;;26.17;20.83;;;13.70;99.90;;;;;;5080657;28;20050;-66
2022/10/28 10:11:26;;;;;;;29.77;23.02;;;13.80;99.90;;;;;;5087091;28;20060;-68
2022/10/28 10:13:56;;;;;;;27.95;23.83;;;13.80;99.90;;;;;;5081099;28;20083;-68
2022/10/28 10:16:48;;;;;;;30.38;21.67;;;13.80;99.90;;;;;;5086788;28;20132;-69
2022/10/28 10:19:14;;;;;;;39.63;24.33;;;13.90;99.90;;;;;;5085476;28;20138;-65
2022/10/28 10:21:53;;;;;;;28.35;22.70;;;14.00;99.90;;;;;;5080023;28;20055;-71
2022/10/28 10:24:29;;;;;;;31.75;23.60;;;14.00;99.90;;;;;;5080108;28;20051;-65
2022/10/28 10:27:03;;;;;;;29.00;21.58;;;14.00;99.90;;;;;;5083262;28;20040;-64
2022/10/28 10:29:33;;;;;;;29.58;23.65;;;13.90;99.90;;;;;;5085051;28;20044;-66
2022/10/28 10:32:18;;;;;;;27.60;21.90;;;13.90;99.90;;;;;;5074206;28;20044;-67
2022/10/28 10:34:55;;;;;;;32.40;23.30;;;13.80;99.90;;;;;;5066100;28;20048;-69
2022/10/28 10:37:23;;;;;;;32.35;21.70;;;13.90;99.90;;;;;;5078922;28;20063;-65
2022/10/28 10:40:37;;;;;;;29.85;24.58;;;13.80;99.90;;;;;;5075183;28;20406;-66
2022/10/28 10:43:16;;;;;;;27.30;20.10;;;13.70;99.90;;;;;;5078781;28;20052;-66
2022/10/28 10:45:58;;;;;;;33.88;23.77;;;13.70;99.90;;;;;;5077458;28;20048;-70
2022/10/28 10:48:25;;;;;;;33.30;23.42;;;13.70;99.90;;;;;;5073656;28;20128;-67
2022/10/28 10:50:53;;;;;;;43.83;25.83;;;13.70;99.90;;;;;;5084523;28;20052;-65
2022/10/28 10:53:30;;;;;;;31.58;23.98;;;13.70;99.90;;;;;;5084269;28;20122;-65
2022/10/28 10:56:00;;;;;;;36.50;23.50;;;13.60;99.90;;;;;;5065174;28;20036;-68
2022/10/28 10:58:31;;;;;;;32.03;22.38;;;13.50;99.90;;;;;;5078148;28;20044;-66
2022/10/28 11:01:01;;;;;;;30.10;23.08;;;13.40;99.90;;;;;;5076379;28;20558;-68
2022/10/28 11:03:37;;;;;;;;;;;13.50;99.90;;;;;;5080064;28;20090;-65
2022/10/28 11:06:07;;;;;;;35.03;22.73;;;13.40;99.90;;;;;;5081909;28;20035;-64
2022/10/28 11:08:59;;;;;;;31.85;23.08;;;13.40;99.90;;;;;;5076578;28;20070;-69
2022/10/28 11:11:36;;;;;;;31.65;21.42;;;13.30;99.90;;;;;;5073883;28;20046;-66
2022/10/28 11:14:25;;;;;;;29.85;20.65;;;13.30;99.90;;;;;;5076210;28;20161;-66
2022/10/28 11:16:53;;;;;;;29.67;21.67;;;13.20;99.90;;;;;;5080290;28;20048;-66
2022/10/28 11:19:32;;;;;;;36.97;22.77;;;13.20;99.90;;;;;;5080342;28;22540;-65
2022/10/28 11:22:40;;;;;;;39.58;23.65;;;13.20;99.90;;;;;;5060295;28;20148;-66
2022/10/28 11:25:34;;;;;;;38.95;27.73;;;13.10;99.90;;;;;;5073894;28;20409;-64
2022/10/28 11:28:18;;;;;;;40.33;26.13;;;13.10;99.90;;;;;;5079979;28;20048;-67
2022/10/28 11:30:50;;;;;;;42.35;27.58;;;13.10;99.90;;;;;;5081638;28;20043;-71
2022/10/28 11:33:20;;;;;;;41.67;27.50;;;13.10;99.90;;;;;;5077985;28;20045;-70
2022/10/28 11:36:09;;;;;;;42.67;28.20;;;13.10;99.90;;;;;;5074903;28;20098;-68
2022/10/28 11:38:36;;;;;;;;;;;13.10;99.90;;;;;;5055856;28;20091;-65
2022/10/28 11:41:11;;;;;;;45.33;30.73;;;13.10;99.90;;;;;;5077053;28;19924;-65
2022/10/28 11:43:50;;;;;;;47.22;30.60;;;13.00;99.90;;;;;;5074731;28;20048;-71
2022/10/28 11:46:32;;;;;;;45.90;30.63;;;13.00;99.90;;;;;;5073415;28;20060;-66
2022/10/28 11:49:02;;;;;;;44.03;28.52;;;12.90;99.90;;;;;;5088414;28;20066;-64
2022/10/28 11:52:01;;;;;;;39.83;26.38;;;12.90;99.90;;;;;;5082031;28;20535;-69
2022/10/28 11:54:41;;;;;;;46.45;27.48;;;12.90;99.90;;;;;;5085318;28;20044;-64
2022/10/28 11:57:29;;;;;;;42.25;24.83;;;12.90;99.90;;;;;;5069445;28;20114;-68
2022/10/28 12:00:43;;;;;;;35.85;24.80;;;12.90;99.90;;;;;;5029656;28;20076;-65
2022/10/28 12:03:28;;;;;;;44.22;25.60;;;12.80;99.90;;;;;;5027904;28;20059;-62
2022/10/28 12:06:06;;;;;;;38.42;22.63;;;12.90;99.90;;;;;;5079403;28;20143;-64
2022/10/28 12:09:11;;;;;;;41.72;23.15;;;12.90;99.90;;;;;;5078487;28;20123;-71
2022/10/28 12:12:06;;;;;;;42.65;25.70;;;12.90;99.90;;;;;;5057089;28;20126;-69
2022/10/28 12:14:36;;;;;;;39.72;23.08;;;12.90;99.90;;;;;;5080572;28;20129;-66
2022/10/28 12:17:12;;;;;;;40.03;23.65;;;12.80;99.90;;;;;;5074068;28;20054;-68
2022/10/28 12:19:55;;;;;;;36.10;23.45;;;12.90;99.90;;;;;;5077875;28;20048;-69
2022/10/28 12:22:39;;;;;;;38.97;22.00;;;12.90;99.90;;;;;;5080206;28;20044;-65
2022/10/28 12:25:15;;;;;;;40.08;23.70;;;12.90;99.90;;;;;;5080536;28;20044;-65
2022/10/28 12:27:46;;;;;;;43.55;25.48;;;12.80;99.90;;;;;;5084674;28;20044;-71
2022/10/28 12:30:26;;;;;;;39.30;24.40;;;12.80;99.90;;;;;;5082279;28;20109;-72
2022/10/28 12:33:05;;;;;;;43.70;24.25;;;12.90;99.90;;;;;;5084219;28;20048;-66
2022/10/28 12:36:08;;;;;;;44.97;25.88;;;12.90;99.90;;;;;;5084250;28;20044;-69
2022/10/28 12:38:54;;;;;;;44.75;23.63;;;12.90;99.90;;;;;;5066167;28;20043;-69
2022/10/28 12:41:53;;;;;;;39.15;22.77;;;12.90;99.90;;;;;;5079715;28;20067;-68
2022/10/28 12:44:23;;;;;;;41.35;23.88;;;12.90;99.90;;;;;;5072232;28;20062;-72
2022/10/28 12:47:04;;;;;;;37.10;24.45;;;12.90;99.90;;;;;;5081218;28;20135;-64
2022/10/28 12:49:52;;;;;;;38.65;25.25;;;13.00;99.90;;;;;;5079259;28;20048;-69
2022/10/28 12:52:32;;;;;;;40.60;26.63;;;13.00;99.90;;;;;;5062710;28;20481;-65
2022/10/28 12:55:17;;;;;;;43.23;26.13;;;13.00;99.90;;;;;;5080411;28;20051;-65
2022/10/28 12:57:50;;;;;;;40.08;25.10;;;13.00;99.90;;;;;;5076833;28;20055;-68
2022/10/28 13:00:23;;;;;;;40.65;22.70;;;13.10;99.90;;;;;;5078354;28;20084;-73
2022/10/28 13:03:03;;;;;;;37.40;23.33;;;13.10;99.90;;;;;;5084471;28;20040;-65
2022/10/28 13:05:41;;;;;;;36.40;23.58;;;13.10;99.90;;;;;;5080903;28;20126;-67